Terminal Aerodrome Forecast
Issued by NWS

Home | Current Version | Previous Version | Text Only | Print | Product List | Glossary On
Versions: 1 2 3 4 5 6 7 8 9 10 11 12
000
FTUS43 KMPX 051140
TAFRWF
TAF
KRWF 051140Z 0512/0612 16009KT P6SM VCSH SCT100 OVC250
     FM051600 17017G26KT P6SM FEW060 SCT100 BKN250
     FM060100 15014KT P6SM VCSH SCT045 BKN100
     FM060400 15010KT 5SM -SHRA OVC045
      TEMPO 0604/0607 VRB30G45KT 1SM +TSRA OVC020CB
     FM060800 16014G21KT 4SM SHRA BR VCTS BKN020CB OVC060=

USA.gov is the U.S. government's official web portal to all federal, state and local government web resources and services.